Texarkana, AR

2:58 PM CDT on April 19, 2015 (GMT -0500)
Texarkana Regional-Webb | | Change Station
CLOSE
Current Station
Airport
Location: Texarkana,
Elevation: 387 ft
Nearby Weather Stations
Active Advisory: Severe Thunderstorm Watch

Elev 387 ft 33.45 °N, 93.99 °W | Updated 1 hour ago

Overcast
Overcast
74 °F
Feels Like 74 °F
N
10
Wind Variable Wind from SSW

Today
High -- | Low -- °F
--% Chance of Precip.
Yesterday
High -- | Low -- °F
Precip. -- in
6:41 AM 7:49 PM
New Moon, 2% visible
Pressure 29.68 in
Visibility 10.0 miles
Clouds Mostly Cloudy 3000 ft
Overcast 3600 ft
Dew Point 63 °F
Humidity 68%
Rainfall 0.11 in
Snow Depth Not available.
UV 3 out of 12
Pollen 10.10 out of 12
Air Quality Not available.
Flu Activity Sporadic
METAR KTXK 191853Z 20009KT 10SM BKN030 OVC036 23/17 A2969 RMK AO2 SLP051 T02330172

More Conditions Fewer Conditions

Pressure 29.68 in
Visibility 10.0 miles
Clouds Mostly Cloudy 3000 ft
Overcast 3600 ft
Dew Point 63 °F
Humidity 68%
Rainfall 0.11 in
Snow Depth Not available.
UV 3 out of 12
Pollen 10.10 out of 12
Air Quality Not available.
Flu Activity Sporadic
METAR KTXK 191853Z 20009KT 10SM BKN030 OVC036 23/17 A2969 RMK AO2 SLP051 T02330172

More Conditions Fewer Conditions

10-Day Weather Forecast

Almanac

Astronomy

Apr. 19, 2015 Rise Set
Actual Time
Civil Twilight
Nautical Twilight
Astronomical Twilight
Moon
Length of Visible Light
Length of Day
Tomorrow will be .
, % of the Moon is Illuminated

Today's Extremes

State Highs State Lows

Community

WunderPhotos

Upload Photos

1,814,950 photos uploaded!

WunderBlogs® & News

Nearby

Air Quality

  Air Quality AQ Index Pollutant
Not available.

Snow Depth

Station Depth Elevation

Earthquake Activity

City Distance Mag. Time & Date
Minimum magnitude displayed is 2.5.

Coastal Water Temperatures

Place Temperature

Stations

Nearby Weather Stations

Station Location Temp. Windchill Dew Point Humidity Wind Precip. Elev Updated Type
                   
Severe Thunderstorm Watch
Statement as of 2:43 PM CDT on April 19, 2015

Severe Thunderstorm Watch 81 remains in effect until 800 PM CDT
for the following locations


AR
. Arkansas counties included are

Bradley Calhoun Clark
Cleveland Columbia Dallas
Hempstead Howard Lafayette
Little River Miller Nevada
Ouachita Pike Sevier
Union